Terminal Aerodrome Forecast
Issued by NWS Portland, OR

Home | Current Version | Previous Version | Text Only | Print | Product List | Glossary On
Versions: 1 2 3 4 5 6 7 8 9 10 11 12 13 14 15 16 17 18 19 20 21 22 23 24 25 26
312
FTUS46 KPQR 281736
TAFEUG
TAF
KEUG 281736Z 2818/2918 VRB04KT P6SM BKN035 BKN060
     FM281900 35007KT P6SM SCT035 BKN060
     FM290100 31008G15KT P6SM SCT060
     FM290900 VRB03KT P6SM BKN060 BKN100
     FM291700 18006KT P6SM SCT030 BKN040 OVC080=

USA.gov is the U.S. government's official web portal to all federal, state and local government web resources and services.